Garrison, ND

10:37 AM CST on February 06, 2016 (GMT -0600)
Garrison | | Change Station
CLOSE
Current Station
Airport
Location: Garrison,
Elevation: 1909 ft
Nearby Weather Stations
Active Advisory: High Wind Warning Active Notice: Public Information Statement

Elev 1909 ft 47.65 °N, 101.44 °W | Updated 1 hour ago

Overcast
Overcast
37 °F
Feels Like 28 °F
N
14
Wind Variable Wind from WSW
Gusts 39 mph

Today
High -- | Low -- °F
--% Chance of Precip.
Yesterday
High -- | Low -- °F
Precip. -- in
Pressure 29.81 in
Visibility -9999.0 miles
Clouds
Windchill 28 °F
Dew Point 27 °F
Humidity 67%
Rainfall 0.00 in
Snow Depth Not available.
8:06 AM 5:54 PM
Waning Crescent, 5% visible
METAR KN60 061452Z AUTO 25012KT 03/M03 A2974 RMK AO1 SLP093 T00281028 56017
Pressure 29.81 in
Visibility -9999.0 miles
Clouds
Windchill 28 °F
Dew Point 27 °F
Humidity 67%
Rainfall 0.00 in
Snow Depth Not available.
8:06 AM 5:54 PM
Waning Crescent, 5% visible
METAR KN60 061452Z AUTO 25012KT 03/M03 A2974 RMK AO1 SLP093 T00281028 56017

10-Day Weather Forecast

Almanac

Astronomy

Feb. 06, 2016 Rise Set
Actual Time
Civil Twilight
Nautical Twilight
Astronomical Twilight
Moon
Length of Visible Light
Length of Day
Tomorrow will be .
, % of the Moon is Illuminated

Today's Extremes

State Highs State Lows

Community

WunderPhotos

Upload Photos

1,891,015 photos uploaded!

WunderBlog® & News

Nearby

Air Quality

  Air Quality AQ Index Pollutant
Not available.

Snow Depth

Station Depth Elevation

Earthquake Activity

City Distance Mag. Time & Date
Minimum magnitude displayed is 2.5.

Coastal Water Temperatures

Place Temperature

Stations

Nearby Weather Stations

Station Location Temp. Windchill Dew Point Humidity Wind Precip. Elev Updated Type
                   

Watches & Warnings

High Wind Warning
Issued: 8:37 AM MST Feb. 6, 2016 – National Weather Service

... High Wind Warning remains in effect from 6 PM CST /5 PM MST/
this evening to 6 am CST /5 am MST/ Monday...

* timing... this evening through late Sunday night.

* Winds... northwest winds gusting up to 65 mph.

* Impacts... travel may become hazardous over western and
portions of central North Dakota. Snow and blowing snow may
reduce visibilities on Sunday.

Precautionary/preparedness actions...

A High Wind Warning means a hazardous high wind event is expected
or occurring. Sustained wind speeds of at least 40 mph or gusts
of 58 mph or more can lead to property damage.